Flight Track Log - Related Links

Times and Time Zones

All times are in EDT time to prevent confusion due to time zone crossing. See the AAL2234 flight status page for this flight to view local times or setup timezone preferences in your user account.

Time Position Orientation Groundspeed Altitude Reporting Facility
EDT Latitude Longitude Course Direction KTS MPH feet Rate Location/Type
Thu 01:19:33 PM 33.4333 -112.0500 82° East 189 217 2,300  Level Phoenix TRACON
Thu 01:19:57 PM 33.4167 -112.0833 239° Southwest 202 232 2,900 1,800 Climbing Phoenix TRACON
Thu 01:21:00 PM 33.4500 -111.7366 90° East  Level FlightAware Approximate
Thu 01:21:03 PM 33.4000 -112.1667 257° West 256 295 5,000  Level Phoenix TRACON
Thu 01:22:00 PM 33.4667 -111.6040 90° East  Level FlightAware Approximate
Thu 01:22:07 PM 33.3256 -112.1658 179° South 274 315 7,700  Level Albuquerque Center
Thu 01:23:00 PM 33.4842 -111.4694 79° East  Level FlightAware Approximate
Thu 01:23:09 PM 33.2539 -112.1242 154° Southeast 285 328 8,800  Level Albuquerque Center
Thu 01:24:00 PM 33.5036 -111.3348 82° East  Level FlightAware Approximate
Thu 01:24:11 PM 33.1989 -112.0558 134° Southeast 312 359 10,800  Level Albuquerque Center
Thu 01:25:13 PM 33.2153 -111.9472 80° East 360 414 12,600 2,226 Climbing Albuquerque Center
Thu 01:26:15 PM 33.2747 -111.8181 61° Northeast 373 429 15,400 2,400 Climbing Albuquerque Center
Thu 01:27:18 PM 33.3214 -111.7003 65° Northeast 387 445 17,600 1,824 Climbing Albuquerque Center
Thu 01:28:20 PM 33.3689 -111.5778 65° Northeast 402 463 19,200 1,597 Climbing Albuquerque Center
Thu 01:29:22 PM 33.4181 -111.4531 65° Northeast 414 476 20,900 1,645 Climbing Albuquerque Center
Thu 01:30:24 PM 33.4689 -111.3228 65° Northeast 429 494 22,600 1,597 Climbing Albuquerque Center
Thu 01:31:26 PM 33.5272 -111.1606 67° East 442 509 24,200 1,452 Climbing Albuquerque Center
Thu 01:32:28 PM 33.5433 -111.0097 83° East 459 528 25,600 1,306 Climbing Albuquerque Center
Thu 01:33:30 PM 33.5675 -110.8583 79° East 461 531 26,900 1,161 Climbing Albuquerque Center
Thu 01:34:32 PM 33.6131 -110.7086 70° East 472 543 28,000 1,113 Climbing Albuquerque Center
Thu 01:35:34 PM 33.6411 -110.5511 78° East 483 556 29,200 1,258 Climbing Albuquerque Center
Thu 01:36:36 PM 33.6767 -110.3647 77° East 485 558 30,600 1,161 Climbing Albuquerque Center
Thu 01:37:38 PM 33.7075 -110.2081 77° East 485 558 31,600 871 Climbing Albuquerque Center
Thu 01:38:40 PM 33.7389 -110.0517 76° East 486 559 32,400 677 Climbing Albuquerque Center
Thu 01:39:42 PM 33.7717 -109.8928 76° East 490 564 33,000 290 Climbing Albuquerque Center
Thu 01:40:44 PM 33.8022 -109.7344 77° East 488 562 33,000  Level Albuquerque Center
Thu 01:41:46 PM 33.8392 -109.5458 77° East 488 562 33,000  Level Albuquerque Center
Thu 01:42:48 PM 33.8700 -109.3894 77° East 486 559 33,000  Level Albuquerque Center
Thu 01:43:50 PM 33.9006 -109.2314 77° East 486 559 33,000  Level Albuquerque Center
Thu 01:44:52 PM 33.9306 -109.0742 77° East 485 558 33,000  Level Albuquerque Center
Thu 01:45:54 PM 33.9611 -108.9153 77° East 487 560 33,000  Level Albuquerque Center
Thu 01:46:57 PM 33.9908 -108.7581 77° East 486 559 33,000  Level Albuquerque Center
Thu 01:47:59 PM 34.0264 -108.5694 77° East 484 557 33,000  Level Albuquerque Center
Thu 01:49:01 PM 34.0553 -108.4111 78° East 486 559 33,000  Level Albuquerque Center
Thu 01:50:03 PM 34.0839 -108.2531 78° East 487 560 33,000 -48 Level Albuquerque Center
Thu 01:51:05 PM 34.1111 -108.0978 78° East 488 562 32,900 -48 Descending Albuquerque Center
Thu 01:52:07 PM 34.1458 -107.9072 78° East 485 558 32,900  Level Albuquerque Center
Thu 01:53:09 PM 34.1744 -107.7486 78° East 484 557 32,900  Level Albuquerque Center
Thu 01:54:11 PM 34.2036 -107.5889 78° East 486 559 32,900  Level Albuquerque Center
Thu 01:55:13 PM 34.2322 -107.4286 78° East 487 560 32,900  Level Albuquerque Center
Thu 01:56:15 PM 34.2606 -107.2683 78° East 488 562 32,900  Level Albuquerque Center
Thu 01:57:17 PM 34.2875 -107.1086 78° East 486 559 32,900 48 Level Albuquerque Center
Thu 01:58:19 PM 34.3203 -106.9303 77° East 483 556 33,000 48 Climbing Albuquerque Center
Thu 01:59:21 PM 34.3389 -106.7689 82° East 486 559 33,000  Level Albuquerque Center
Thu 02:00:23 PM 34.3431 -106.6039 88° East 492 566 33,000  Level Albuquerque Center
Thu 02:01:25 PM 34.3478 -106.4417 88° East 489 563 33,000  Level Albuquerque Center
Thu 02:02:27 PM 34.3528 -106.2447 88° East 490 564 33,000  Level Albuquerque Center
Thu 02:03:29 PM 34.3575 -106.0967 88° East 486 559 33,000  Level Albuquerque Center
Thu 02:04:31 PM 34.3608 -105.9039 89° East 487 560 33,000  Level Albuquerque Center
Thu 02:05:33 PM 34.3639 -105.7378 89° East 489 563 33,000  Level Albuquerque Center
Thu 02:06:34 PM 34.3708 -105.5747 87° East 485 558 33,000  Level Albuquerque Center
Thu 02:07:36 PM 34.3806 -105.4089 86° East 487 560 33,000  Level Albuquerque Center
Thu 02:08:38 PM 34.3883 -105.2433 87° East 490 564 33,000  Level Albuquerque Center
Thu 02:09:40 PM 34.3978 -105.0792 86° East 486 559 33,000  Level Albuquerque Center
Thu 02:10:42 PM 34.4006 -104.9158 89° East 484 557 33,000  Level Albuquerque Center
Thu 02:11:44 PM 34.3969 -104.7200 91° East 493 567 33,000  Level Albuquerque Center
Thu 02:12:46 PM 34.3950 -104.5556 91° East 490 564 33,000  Level Albuquerque Center
Thu 02:13:48 PM 34.3931 -104.3886 91° East 492 566 33,000  Level Albuquerque Center
Thu 02:14:50 PM 34.3906 -104.2222 91° East 493 567 33,000  Level Albuquerque Center
Thu 02:15:51 PM 34.3883 -104.0572 91° East 491 565 33,000  Level Albuquerque Center
Thu 02:16:53 PM 34.3850 -103.8897 91° East 493 567 33,000  Level Albuquerque Center
Thu 02:17:55 PM 34.3819 -103.7253 91° East 490 564 33,000  Level Albuquerque Center
Thu 02:18:57 PM 34.3781 -103.5306 91° East 492 566 33,000  Level Albuquerque Center
Thu 02:19:59 PM 34.3747 -103.3675 91° East 488 562 33,000  Level Albuquerque Center
Thu 02:21:01 PM 34.3708 -103.2033 92° East 486 559 33,000  Level Albuquerque Center
Thu 02:22:02 PM 34.3672 -103.0386 91° East 486 559 33,000  Level Albuquerque Center
Thu 02:23:04 PM 34.3617 -102.8650 92° East 488 562 33,000  Level Albuquerque Center
Thu 02:24:06 PM 34.3578 -102.7042 92° East 484 557 33,000  Level Albuquerque Center
Thu 02:25:08 PM 34.3533 -102.5417 92° East 485 558 33,000  Level Albuquerque Center
Thu 02:26:10 PM 34.3486 -102.3806 92° East 483 556 33,000  Level Albuquerque Center
Thu 02:27:12 PM 34.3436 -102.2183 92° East 485 558 33,000  Level Albuquerque Center
Thu 02:27:49 PM 34.3403 -102.0939 92° East 478 550 33,000  Level Fort Worth Center
Thu 02:28:49 PM 34.3336 -101.9328 93° East 483 556 33,000  Level Fort Worth Center
Thu 02:29:49 PM 34.3267 -101.7739 93° East 477 549 33,000  Level Fort Worth Center
Thu 02:30:49 PM 34.3242 -101.6078 91° East 482 555 33,000  Level Fort Worth Center
Thu 02:31:49 PM 34.3147 -101.4517 94° East 473 544 33,000  Level Fort Worth Center
Thu 02:32:49 PM 34.3114 -101.2956 91° East 466 536 33,000  Level Fort Worth Center
Thu 02:33:49 PM 34.3058 -101.1344 92° East 472 543 33,000  Level Fort Worth Center
Thu 02:34:49 PM 34.2872 -100.9778 98° East 472 543 33,000  Level Fort Worth Center
Thu 02:35:49 PM 34.2622 -100.8258 101° East 466 536 33,000  Level Fort Worth Center
Thu 02:36:49 PM 34.2394 -100.6692 100° East 466 536 33,000  Level Fort Worth Center
Thu 02:37:49 PM 34.2078 -100.5175 104° East 466 536 33,000  Level Fort Worth Center
Thu 02:38:49 PM 34.1719 -100.3656 106° East 466 536 33,000  Level Fort Worth Center
Thu 02:39:49 PM 34.1356 -100.2136 106° East 471 542 33,000  Level Fort Worth Center
Thu 02:40:49 PM 34.1014 -100.0647 105° East 471 542 33,000  Level Fort Worth Center
Thu 02:41:49 PM 34.0628 -99.9131 107° East 465 535 33,000  Level Fort Worth Center
Thu 02:42:49 PM 34.0261 -99.7642 107° East 465 535 33,000  Level Fort Worth Center
Thu 02:43:49 PM 33.9933 -99.6131 105° East 460 529 33,000 -300 Level Fort Worth Center
Thu 02:44:49 PM 33.9561 -99.4642 107° East 460 529 32,400 -1,100 Descending Fort Worth Center
Thu 02:45:49 PM 33.9208 -99.3133 106° East 460 529 30,800 -1,650 Descending Fort Worth Center
Thu 02:46:49 PM 33.8836 -99.1647 107° East 465 535 29,100 -1,750 Descending Fort Worth Center
Thu 02:47:49 PM 33.8478 -99.0217 107° East 457 526 27,300 -1,800 Descending Fort Worth Center
Thu 02:48:49 PM 33.8119 -98.8808 107° East 452 520 25,500 -1,650 Descending Fort Worth Center
Thu 02:49:49 PM 33.7800 -98.7531 107° East 444 511 24,000 -750 Descending Fort Worth Center
Thu 02:50:49 PM 33.7439 -98.6100 107° East 444 511 24,000 -150 Level Fort Worth Center
Thu 02:51:49 PM 33.6953 -98.4644 112° Southeast 434 499 23,700 -1,200 Descending Fort Worth Center
Thu 02:52:49 PM 33.6461 -98.3342 114° Southeast 426 490 21,600 -1,900 Descending Fort Worth Center
Thu 02:53:49 PM 33.5989 -98.2089 114° Southeast 418 481 19,900 -1,900 Descending Fort Worth Center
Thu 02:54:49 PM 33.5536 -98.0889 114° Southeast 400 460 17,800 -1,900 Descending Fort Worth Center
Thu 02:55:49 PM 33.5083 -97.9764 116° Southeast 390 449 16,100 -2,050 Descending Fort Worth Center
Thu 02:56:49 PM 33.4672 -97.8667 114° Southeast 361 415 13,700 -2,300 Descending Fort Worth Center
Thu 02:57:49 PM 33.4278 -97.7644 115° Southeast 349 402 11,500 -1,350 Descending Fort Worth Center
Thu 02:58:49 PM 33.3925 -97.6697 114° Southeast 314 361 11,000 -650 Descending Fort Worth Center
Thu 02:59:49 PM 33.3364 -97.5925 131° Southeast 303 349 10,200 -950 Descending Fort Worth Center
Thu 03:00:49 PM 33.3050 -97.5103 115° Southeast 290 334 9,100 -1,300 Descending Fort Worth Center
Thu 03:01:49 PM 33.2906 -97.4283 102° East 273 314 7,600 -2,000 Descending Fort Worth Center
Thu 03:02:49 PM 33.2758 -97.3314 100° East 268 308 5,100 -1,300 Descending Fort Worth Center
Thu 03:03:49 PM 33.2528 -97.2519 109° East 273 314 5,000 -350 Descending Fort Worth Center
Thu 03:04:49 PM 33.2278 -97.1700 110° East 253 291 4,400 -1,000 Descending Fort Worth Center
Thu 03:05:49 PM 33.2108 -97.1081 108° East 224 258 3,000 -700 Descending Fort Worth Center
Thu 03:06:49 PM 33.1836 -97.0536 121° Southeast 192 221 3,000  Level Fort Worth Center
Thu 03:07:49 PM 33.1481 -97.0536 180° South 142 163 3,000  Level Fort Worth Center
Thu 03:08:49 PM 33.1022 -97.0539 180° South 142 163 3,000 -80 Level Fort Worth Center
Thu 03:09:04 PM 33.1000 -97.0500 124° Southeast 156 180 2,900 -80 Descending Dallas / Fort Worth TRACON
Thu 03:10:04 PM 33.0500 -97.0500 180° South 153 176 2,900  Level Dallas / Fort Worth TRACON

Login

Don't have an account? Register now (free) for customized features, flight alerts, and more!